Terminal Aerodrome Forecast
Issued by NWS

Home | Current Version | Previous Version | Graphics & Text | Print | Product List | Glossary On
Versions: 1 2 3 4 5 6 7 8 9 10 11 12 13 14 15 16 17 18 19
000
FTUS43 KBIS 290900 AAA
TAFDIK
TAF AMD
KDIK 290906Z 2909/3006 20008KT P6SM SCT100
      TEMPO 2909/2912 35018G25KT
     FM291500 34014KT P6SM VCSH SCT030 BKN080
     FM292100 36009KT P6SM BKN080=

USA.gov is the U.S. government's official web portal to all federal, state and local government web resources and services.